Time;durP1;ratioP1;P1;durP2;ratioP2;P2;SDS_P1;SDS_P2;PMS_P1;PMS_P2;Temp;Humidity;BMP_temperature;BMP_pressure;BME280_temperature;BME280_humidity;BME280_pressure;Samples;Min_cycle;Max_cycle;Signal;HPM_P1;HPM_P2
2022/06/06 00:02:10;;;;;;;;;;;23.60;97.80;;;;;;4862400;29;19939;-65
2022/06/06 00:04:37;;;;;;;;;;;23.60;97.80;;;;;;4853181;29;19932;-61
2022/06/06 00:07:05;;;;;;;;;;;23.60;97.80;;;;;;4855083;29;19932;-58
2022/06/06 00:09:32;;;;;;;;;;;23.60;97.80;;;;;;4871830;29;20360;-61
2022/06/06 00:12:00;;;;;;;;;;;23.60;97.80;;;;;;4869001;29;19932;-62
2022/06/06 00:14:27;;;;;;;;;;;23.60;97.80;;;;;;4859068;29;19951;-60
2022/06/06 00:16:55;;;;;;;;;;;23.60;97.80;;;;;;4865263;29;19939;-62
2022/06/06 00:19:23;;;;;;;;;;;23.60;97.80;;;;;;4855360;29;20397;-61
2022/06/06 00:21:50;;;;;;;;;;;23.60;97.80;;;;;;4882814;29;19955;-61
2022/06/06 00:24:18;;;;;;;;;;;23.60;97.80;;;;;;4860794;29;19935;-62
2022/06/06 00:26:45;;;;;;;;;;;23.60;97.80;;;;;;4859759;29;19939;-63
2022/06/06 00:29:14;;;;;;;;;;;23.60;97.80;;;;;;4851197;29;19936;-63
2022/06/06 00:37:14;;;;;;;;;;;23.60;97.90;;;;;;4859910;29;19966;-62
2022/06/06 00:39:42;;;;;;;;;;;23.60;97.80;;;;;;4860270;29;19932;-63
2022/06/06 00:42:11;;;;;;;;;;;23.60;97.80;;;;;;4874593;29;19928;-63
2022/06/06 00:44:39;;;;;;;;;;;23.60;97.80;;;;;;4871047;29;19931;-64
2022/06/06 00:47:28;;;;;;;;;;;23.60;97.80;;;;;;4859238;29;19936;-59
2022/06/06 00:50:03;;;;;;;;;;;23.60;97.80;;;;;;4850424;29;19958;-63
2022/06/06 00:52:32;;;;;;;;;;;23.60;97.80;;;;;;4865360;29;19928;-63
2022/06/06 00:55:01;;;;;;;;;;;23.60;97.80;;;;;;4845818;29;19932;-62
2022/06/06 00:57:31;;;;;;;;;;;23.60;97.80;;;;;;4868096;29;19932;-62
2022/06/06 01:00:00;;;;;;;;;;;23.50;97.80;;;;;;4848292;29;19927;-62
2022/06/06 01:02:27;;;;;;;;;;;23.50;97.80;;;;;;4869355;29;19928;-62
2022/06/06 01:04:55;;;;;;;;;;;23.50;97.80;;;;;;4858208;29;19928;-60
2022/06/06 01:07:22;;;;;;;;;;;23.50;97.80;;;;;;4862625;29;19928;-62
2022/06/06 01:09:49;;;;;;;;;;;23.50;97.80;;;;;;4859001;29;20312;-62
2022/06/06 01:12:19;;;;;;;;;;;23.50;97.80;;;;;;4862325;29;19931;-63
2022/06/06 01:14:55;;;;;;;;;;;23.50;97.80;;;;;;4886743;29;19942;-64
2022/06/06 01:17:25;;;;;;;;;;;23.50;97.80;;;;;;4863763;29;20475;-61
2022/06/06 01:20:03;;;;;;;;;;;23.50;97.80;;;;;;4868665;29;20280;-63
2022/06/06 01:22:48;;;;;;;;;;;23.50;97.80;;;;;;4863056;29;19932;-63
2022/06/06 01:25:42;;;;;;;;;;;23.50;97.80;;;;;;4858427;29;20019;-62
2022/06/06 01:28:28;;;;;;;;;;;23.50;97.80;;;;;;4861051;29;19929;-61
2022/06/06 01:30:57;;;;;;;;;;;23.50;97.80;;;;;;4862438;29;20369;-62
2022/06/06 01:33:24;;;;;;;;;;;23.50;97.80;;;;;;4857871;29;19940;-62
2022/06/06 01:35:51;;;;;;;;;;;23.50;97.80;;;;;;4864794;29;19935;-62
2022/06/06 01:38:21;;;;;;;;;;;23.50;97.80;;;;;;4865981;29;19929;-61
2022/06/06 01:41:03;;;;;;;;;;;23.50;97.80;;;;;;4866398;29;19928;-63
2022/06/06 01:43:51;;;;;;;;;;;23.50;97.80;;;;;;4859441;29;19935;-62
2022/06/06 01:46:26;;;;;;;;;;;23.50;97.80;;;;;;4865883;29;19928;-61
2022/06/06 01:48:54;;;;;;;;;;;23.50;97.80;;;;;;4859077;29;19939;-59
2022/06/06 01:51:23;;;;;;;;;;;23.50;97.80;;;;;;4870320;29;19936;-60
2022/06/06 01:53:51;;;;;;;;;;;23.50;97.80;;;;;;4861668;29;19936;-64
2022/06/06 01:56:21;;;;;;;;;;;23.40;97.80;;;;;;4859153;29;19935;-62
2022/06/06 01:58:48;;;;;;;;;;;23.40;97.80;;;;;;4858324;29;20415;-60
2022/06/06 02:01:15;;;;;;;;;;;23.50;97.80;;;;;;4881422;29;20308;-61
2022/06/06 02:03:43;;;;;;;;;;;23.40;97.80;;;;;;4872412;29;19929;-59
2022/06/06 02:06:11;;;;;;;;;;;23.40;97.80;;;;;;4872882;29;20225;-61
2022/06/06 02:08:38;;;;;;;;;;;23.50;97.80;;;;;;4861918;29;19940;-62
2022/06/06 02:11:05;;;;;;;;;;;23.40;97.80;;;;;;4865530;29;20038;-58
2022/06/06 02:13:32;;;;;;;;;;;23.40;97.80;;;;;;4865970;29;19939;-61
2022/06/06 02:16:00;;;;;;;;;;;23.40;97.80;;;;;;4866204;29;19932;-63
2022/06/06 02:18:28;;;;;;;;;;;23.40;97.80;;;;;;4860476;29;19928;-62
2022/06/06 02:20:55;;;;;;;;;;;23.40;97.80;;;;;;4863813;29;19935;-60
2022/06/06 02:23:22;;;;;;;;;;;23.40;97.80;;;;;;4868850;29;19935;-63
2022/06/06 02:25:49;;;;;;;;;;;23.50;98.00;;;;;;4876033;29;19928;-63
2022/06/06 02:28:16;;;;;;;;;;;23.40;97.80;;;;;;4867294;29;19939;-62
2022/06/06 02:30:43;;;;;;;;;;;23.40;97.80;;;;;;4879612;29;19954;-59
2022/06/06 02:33:11;;;;;;;;;;;23.40;97.80;;;;;;4881861;29;19936;-64
2022/06/06 02:35:40;;;;;;;;;;;23.40;97.80;;;;;;4865116;29;19932;-60
2022/06/06 02:38:09;;;;;;;;;;;23.40;97.80;;;;;;4871320;29;19928;-60
2022/06/06 02:40:36;;;;;;;;;;;23.40;97.80;;;;;;4862251;29;19931;-62
2022/06/06 02:43:03;;;;;;;;;;;23.40;97.80;;;;;;4862609;29;19928;-64
2022/06/06 02:45:30;;;;;;;;;;;23.40;97.80;;;;;;4860729;29;20564;-61
2022/06/06 02:47:59;;;;;;;;;;;23.40;97.80;;;;;;4857497;29;19955;-61
2022/06/06 02:50:28;;;;;;;;;;;23.30;97.80;;;;;;4866359;29;20427;-63
2022/06/06 02:52:55;;;;;;;;;;;23.40;97.80;;;;;;4855977;29;19932;-61
2022/06/06 02:55:22;;;;;;;;;;;23.40;97.80;;;;;;4863217;29;19979;-63
2022/06/06 02:57:51;;;;;;;;;;;23.30;97.70;;;;;;4856039;29;19939;-63
2022/06/06 03:00:19;;;;;;;;;;;23.30;97.80;;;;;;4870260;29;19932;-62
2022/06/06 03:02:47;;;;;;;;;;;23.30;97.80;;;;;;4856359;29;19932;-61
2022/06/06 03:05:14;;;;;;;;;;;23.30;97.70;;;;;;4864824;29;19947;-62
2022/06/06 03:08:05;;;;;;;;;;;23.30;97.70;;;;;;4864619;29;19932;-62
2022/06/06 03:10:32;;;;;;;;;;;23.30;97.70;;;;;;4863942;29;19954;-60
2022/06/06 03:13:00;;;;;;;;;;;23.30;97.80;;;;;;4859223;29;19935;-64
2022/06/06 03:15:32;;;;;;;;;;;23.30;97.70;;;;;;4882448;29;20387;-62
2022/06/06 03:20:57;;;;;;;;;;;23.30;97.70;;;;;;4870895;29;19928;-61
2022/06/06 03:23:27;;;;;;;;;;;23.30;97.70;;;;;;4855480;29;19928;-61
2022/06/06 03:26:13;;;;;;;;;;;23.30;97.70;;;;;;4877299;29;19936;-64
2022/06/06 03:28:50;;;;;;;;;;;23.30;97.70;;;;;;4862426;29;19932;-64
2022/06/06 03:31:23;;;;;;;;;;;23.30;97.70;;;;;;4858412;29;19932;-62
2022/06/06 03:34:11;;;;;;;;;;;23.30;97.70;;;;;;4861479;29;19932;-62
2022/06/06 03:36:41;;;;;;;;;;;23.30;97.70;;;;;;4860059;29;19939;-63
2022/06/06 03:39:08;;;;;;;;;;;23.30;97.70;;;;;;4872777;29;19928;-64
2022/06/06 03:41:51;;;;;;;;;;;23.30;97.70;;;;;;4857471;29;19928;-62
2022/06/06 03:44:37;;;;;;;;;;;23.30;97.70;;;;;;4872431;29;19932;-60
2022/06/06 03:47:04;;;;;;;;;;;23.30;97.70;;;;;;4874926;29;19932;-63
2022/06/06 03:49:44;;;;;;;;;;;23.20;97.70;;;;;;4864886;29;19943;-61
2022/06/06 03:52:15;;;;;;;;;;;23.30;97.70;;;;;;4857186;29;19948;-60
2022/06/06 03:54:54;;;;;;;;;;;23.20;97.70;;;;;;4858053;29;19928;-60
2022/06/06 03:57:23;;;;;;;;;;;23.20;97.70;;;;;;4855862;29;19951;-61
2022/06/06 03:59:53;;;;;;;;;;;23.20;97.70;;;;;;4866229;29;20042;-61
2022/06/06 04:02:23;;;;;;;;;;;23.30;97.70;;;;;;4861869;29;19928;-62
2022/06/06 04:04:52;;;;;;;;;;;23.20;97.70;;;;;;4874159;29;19951;-63
2022/06/06 04:07:19;;;;;;;;;;;23.20;97.70;;;;;;4857609;29;19951;-63
2022/06/06 04:09:47;;;;;;;;;;;23.20;97.90;;;;;;4866735;29;19939;-62
2022/06/06 04:12:17;;;;;;;;;;;23.30;97.70;;;;;;4864252;29;20154;-60
2022/06/06 04:15:16;;;;;;;;;;;23.20;97.70;;;;;;4850519;29;20411;-62
2022/06/06 04:17:52;;;;;;;;;;;23.20;97.70;;;;;;4838074;29;19939;-62
2022/06/06 04:20:43;;;;;;;;;;;23.20;97.70;;;;;;4873830;29;19943;-61
2022/06/06 04:23:19;;;;;;;;;;;23.20;97.70;;;;;;4865713;29;19935;-61
2022/06/06 04:25:52;;;;;;;;;;;23.20;97.70;;;;;;4870294;29;19934;-60
2022/06/06 04:28:23;;;;;;;;;;;23.20;97.70;;;;;;4861787;29;19935;-59
2022/06/06 04:31:02;;;;;;;;;;;23.20;97.80;;;;;;4879895;29;19931;-61
2022/06/06 04:33:48;;;;;;;;;;;23.20;97.70;;;;;;4859428;29;19939;-60
2022/06/06 04:36:30;;;;;;;;;;;23.20;97.80;;;;;;4875965;29;19932;-62
2022/06/06 04:39:02;;;;;;;;;;;23.20;97.80;;;;;;4858978;29;19952;-63
2022/06/06 04:41:39;;;;;;;;;;;23.20;97.80;;;;;;4882593;29;20112;-62
2022/06/06 04:44:09;;;;;;;;;;;23.20;97.80;;;;;;4866404;29;19931;-64
2022/06/06 04:46:40;;;;;;;;;;;23.20;97.80;;;;;;4862363;29;20490;-61
2022/06/06 04:49:08;;;;;;;;;;;23.20;97.80;;;;;;4866761;29;19935;-63
2022/06/06 04:51:36;;;;;;;;;;;23.20;97.80;;;;;;4867847;29;20296;-62
2022/06/06 04:54:04;;;;;;;;;;;23.20;97.80;;;;;;4860266;29;19928;-61
2022/06/06 04:56:32;;;;;;;;;;;23.20;97.80;;;;;;4841910;29;19939;-62
2022/06/06 04:59:00;;;;;;;;;;;23.20;98.10;;;;;;4864972;29;19939;-60
2022/06/06 05:01:27;;;;;;;;;;;23.20;97.90;;;;;;4871623;29;20304;-61
2022/06/06 05:03:55;;;;;;;;;;;23.20;97.90;;;;;;4846653;29;20316;-62
2022/06/06 05:06:40;;;;;;;;;;;23.10;97.80;;;;;;4873244;29;19928;-62
2022/06/06 05:09:13;;;;;;;;;;;23.20;97.90;;;;;;4862572;29;19935;-60
2022/06/06 05:11:52;;;;;;;;;;;23.20;97.90;;;;;;4867196;29;20276;-64
2022/06/06 05:14:19;;;;;;;;;;;23.10;97.90;;;;;;4871145;29;19927;-59
2022/06/06 05:17:05;;;;;;;;;;;23.10;97.90;;;;;;4863919;29;19932;-64
2022/06/06 05:19:51;;;;;;;;;;;23.10;97.90;;;;;;4867849;29;20469;-61
2022/06/06 05:22:21;;;;;;;;;;;23.10;97.90;;;;;;4857460;29;19928;-63
2022/06/06 05:25:09;;;;;;;;;;;23.10;98.00;;;;;;4863554;29;19928;-61
2022/06/06 05:27:36;;;;;;;;;;;23.10;98.00;;;;;;4857432;29;19932;-65
2022/06/06 05:30:18;;;;;;;;;;;23.10;98.00;;;;;;4862001;29;19932;-64
2022/06/06 05:32:49;;;;;;;;;;;23.10;98.00;;;;;;4857196;29;20340;-63
2022/06/06 05:35:35;;;;;;;;;;;23.10;98.00;;;;;;4877160;29;19932;-61
2022/06/06 05:38:02;;;;;;;;;;;23.10;98.00;;;;;;4857506;29;19943;-64
2022/06/06 05:40:35;;;;;;;;;;;23.10;98.00;;;;;;4865681;29;20277;-60
2022/06/06 05:43:10;;;;;;;;;;;23.10;98.00;;;;;;4857492;29;20285;-60
2022/06/06 05:45:47;;;;;;;;;;;23.10;98.00;;;;;;4874075;29;19948;-63
2022/06/06 05:48:17;;;;;;;;;;;23.10;98.00;;;;;;4872698;29;19932;-64
2022/06/06 05:50:45;;;;;;;;;;;23.10;98.00;;;;;;4870415;29;20320;-63
2022/06/06 05:53:21;;;;;;;;;;;23.10;98.00;;;;;;4865803;29;19927;-62
2022/06/06 05:55:48;;;;;;;;;;;23.10;98.00;;;;;;4870789;29;20313;-63
2022/06/06 05:58:35;;;;;;;;;;;23.10;98.00;;;;;;4859578;29;19928;-61
2022/06/06 06:01:02;;;;;;;;;;;23.10;98.00;;;;;;4868332;29;20416;-62
2022/06/06 06:03:48;;;;;;;;;;;23.10;98.10;;;;;;4857456;29;20314;-59
2022/06/06 06:06:34;;;;;;;;;;;23.10;98.00;;;;;;4867347;29;19935;-62
2022/06/06 06:09:18;;;;;;;;;;;23.10;98.10;;;;;;4858087;29;19939;-62
2022/06/06 06:11:48;;;;;;;;;;;23.10;98.10;;;;;;4862652;29;19935;-62
2022/06/06 06:14:34;;;;;;;;;;;23.10;98.10;;;;;;4869244;29;19939;-62
2022/06/06 06:17:01;;;;;;;;;;;23.10;98.10;;;;;;4857281;29;19939;-61
2022/06/06 06:19:36;;;;;;;;;;;23.10;98.00;;;;;;4863617;29;19939;-63
2022/06/06 06:22:05;;;;;;;;;;;23.10;98.00;;;;;;4840190;29;19929;-59
2022/06/06 06:24:33;;;;;;;;;;;23.10;98.00;;;;;;4865832;29;19931;-60
2022/06/06 06:27:02;;;;;;;;;;;23.20;98.10;;;;;;4855067;29;19932;-60
2022/06/06 06:29:29;;;;;;;;;;;23.10;98.00;;;;;;4866221;29;19938;-61
2022/06/06 06:31:59;;;;;;;;;;;23.10;98.30;;;;;;4876632;29;20026;-63
2022/06/06 06:34:26;;;;;;;;;;;23.10;98.10;;;;;;4865473;29;19932;-61
2022/06/06 06:37:05;;;;;;;;;;;23.10;98.10;;;;;;4861157;29;20261;-62
2022/06/06 06:39:47;;;;;;;;;;;23.10;98.10;;;;;;4859352;29;20293;-59
2022/06/06 06:42:21;;;;;;;;;;;23.10;98.10;;;;;;4870297;29;19939;-61
2022/06/06 06:44:53;;;;;;;;;;;23.10;98.10;;;;;;4867131;29;19936;-60
2022/06/06 06:47:27;;;;;;;;;;;23.20;98.10;;;;;;4860051;29;19936;-61
2022/06/06 06:49:59;;;;;;;;;;;23.10;98.10;;;;;;4882554;29;19946;-61
2022/06/06 06:52:44;;;;;;;;;;;23.10;98.10;;;;;;4874854;29;20419;-61
2022/06/06 06:55:18;;;;;;;;;;;23.10;98.10;;;;;;4856487;29;19943;-61
2022/06/06 06:57:49;;;;;;;;;;;23.10;98.10;;;;;;4844199;29;19936;-62
2022/06/06 07:00:18;;;;;;;;;;;23.10;98.10;;;;;;4856368;29;19932;-62
2022/06/06 07:09:02;;;;;;;;;;;23.10;98.10;;;;;;4842492;29;19932;-62
2022/06/06 07:11:44;;;;;;;;;;;23.20;98.10;;;;;;4872940;29;19931;-62
2022/06/06 07:14:31;;;;;;;;;;;23.20;98.10;;;;;;4871229;29;19943;-62
2022/06/06 07:16:59;;;;;;;;;;;23.10;98.10;;;;;;4856728;29;20372;-61
2022/06/06 07:19:35;;;;;;;;;;;23.20;98.10;;;;;;4862916;29;20280;-62
2022/06/06 07:22:04;;;;;;;;;;;23.20;98.10;;;;;;4857476;29;19928;-62
2022/06/06 07:24:31;;;;;;;;;;;23.20;98.10;;;;;;4853757;29;19932;-62
2022/06/06 07:27:00;;;;;;;;;;;23.20;98.10;;;;;;4861959;29;19940;-60
2022/06/06 07:29:27;;;;;;;;;;;23.20;98.10;;;;;;4864108;29;20293;-61
2022/06/06 07:32:20;;;;;;;;;;;23.20;98.20;;;;;;4850412;29;19939;-60
2022/06/06 07:34:56;;;;;;;;;;;23.20;98.20;;;;;;4864742;29;19931;-60
2022/06/06 07:37:43;;;;;;;;;;;23.10;98.10;;;;;;4865710;29;19932;-62
2022/06/06 07:40:19;;;;;;;;;;;23.20;98.20;;;;;;4868659;29;19935;-63
2022/06/06 07:43:12;;;;;;;;;;;23.10;98.10;;;;;;4866866;29;20557;-60
2022/06/06 07:45:56;;;;;;;;;;;23.10;98.20;;;;;;4853143;29;19935;-59
2022/06/06 07:48:38;;;;;;;;;;;23.10;98.10;;;;;;4857140;29;19932;-62
2022/06/06 07:51:06;;;;;;;;;;;23.10;98.10;;;;;;4870615;29;19939;-65
2022/06/06 07:53:48;;;;;;;;;;;23.10;98.20;;;;;;4856245;29;19935;-63
2022/06/06 07:56:24;;;;;;;;;;;23.10;98.20;;;;;;4860478;29;20408;-63
2022/06/06 07:59:05;;;;;;;;;;;23.10;98.10;;;;;;4840976;29;19939;-62
2022/06/06 08:01:43;;;;;;;;;;;23.10;98.20;;;;;;4871512;29;19943;-61
2022/06/06 08:04:21;;;;;;;;;;;23.10;98.20;;;;;;4855919;29;19936;-65
2022/06/06 08:06:51;;;;;;;;;;;23.10;98.20;;;;;;4867391;29;19928;-64
2022/06/06 08:09:27;;;;;;;;;;;23.10;98.20;;;;;;4856935;29;19932;-62
2022/06/06 08:11:54;;;;;;;;;;;23.10;98.20;;;;;;4851083;29;20312;-61
2022/06/06 08:14:27;;;;;;;;;;;23.10;98.20;;;;;;4857675;29;19932;-59
2022/06/06 08:17:01;;;;;;;;;;;23.10;98.20;;;;;;4867534;29;19928;-60
2022/06/06 08:19:41;;;;;;;;;;;23.10;98.20;;;;;;4855997;29;20397;-56
2022/06/06 08:22:09;;;;;;;;;;;23.10;98.20;;;;;;4857563;29;19932;-63
2022/06/06 08:24:41;;;;;;;;;;;23.10;98.20;;;;;;4859625;29;19928;-64
2022/06/06 08:27:17;;;;;;;;;;;23.10;98.40;;;;;;4863493;29;19932;-63
2022/06/06 08:29:44;;;;;;;;;;;23.10;98.20;;;;;;4863003;29;20446;-63
2022/06/06 08:32:12;;;;;;;;;;;23.10;98.40;;;;;;4855163;29;19928;-62
2022/06/06 08:34:40;;;;;;;;;;;23.10;98.20;;;;;;4842797;29;19940;-64
2022/06/06 08:37:22;;;;;;;;;;;23.10;98.20;;;;;;4857095;29;19928;-62
2022/06/06 08:39:58;;;;;;;;;;;23.10;98.20;;;;;;4887461;29;19935;-61
2022/06/06 08:42:28;;;;;;;;;;;23.10;98.20;;;;;;4856252;29;20341;-62
2022/06/06 08:44:58;;;;;;;;;;;23.10;98.20;;;;;;4866434;29;20246;-65
2022/06/06 08:47:31;;;;;;;;;;;23.10;98.20;;;;;;4866113;29;19962;-64
2022/06/06 08:53:11;;;;;;;;;;;23.10;98.20;;;;;;4867119;29;19940;-63
2022/06/06 08:55:44;;;;;;;;;;;23.10;98.20;;;;;;4879339;29;19943;-63
2022/06/06 08:58:20;;;;;;;;;;;23.20;98.20;;;;;;4871544;29;19932;-60
2022/06/06 09:00:51;;;;;;;;;;;23.20;98.20;;;;;;4889716;29;19939;-61
2022/06/06 09:03:42;;;;;;;;;;;23.20;98.20;;;;;;4868014;29;19928;-62
2022/06/06 09:06:26;;;;;;;;;;;23.20;98.20;;;;;;4843150;29;20320;-62
2022/06/06 09:09:11;;;;;;;;;;;23.20;98.20;;;;;;4861069;29;19932;-60
2022/06/06 09:12:11;;;;;;;;;;;23.20;98.20;;;;;;4865107;29;19932;-62
2022/06/06 09:14:38;;;;;;;;;;;23.20;98.20;;;;;;4842148;29;20395;-62
2022/06/06 09:17:37;;;;;;;;;;;23.20;98.20;;;;;;4876193;29;19943;-63
2022/06/06 09:20:09;;;;;;;;;;;23.20;98.20;;;;;;4859270;29;20314;-59
2022/06/06 09:22:57;;;;;;;;;;;23.20;98.20;;;;;;4863692;29;19968;-62
2022/06/06 09:25:33;;;;;;;;;;;23.20;98.20;;;;;;4860925;29;19928;-63
2022/06/06 09:28:19;;;;;;;;;;;23.20;98.20;;;;;;4866917;29;20584;-61
2022/06/06 09:30:56;;;;;;;;;;;23.20;98.20;;;;;;4872109;29;19932;-62
2022/06/06 09:33:23;;;;;;;;;;;23.20;98.10;;;;;;4859005;29;19932;-61
2022/06/06 09:36:09;;;;;;;;;;;23.20;98.20;;;;;;4868560;29;19962;-64
2022/06/06 09:38:39;;;;;;;;;;;23.20;98.20;;;;;;4865892;29;19934;-61
2022/06/06 09:41:25;;;;;;;;;;;23.20;98.20;;;;;;4872874;29;19928;-60
2022/06/06 09:43:57;;;;;;;;;;;23.20;98.10;;;;;;4859363;29;19932;-62
2022/06/06 09:46:24;;;;;;;;;;;23.20;98.10;;;;;;4881041;29;19928;-62
2022/06/06 09:49:22;;;;;;;;;;;23.20;98.10;;;;;;4862852;29;19939;-63
2022/06/06 09:51:52;;;;;;;;;;;23.30;98.10;;;;;;4869709;29;20333;-61
2022/06/06 10:00:20;;;;;;;;;;;23.30;97.90;;;;;;4859077;29;19939;-64
2022/06/06 10:03:06;;;;;;;;;;;23.30;97.90;;;;;;4861878;29;19932;-62
2022/06/06 10:05:36;;;;;;;;;;;23.40;97.90;;;;;;4844772;29;20321;-60
2022/06/06 10:08:22;;;;;;;;;;;23.40;97.80;;;;;;4877900;29;19928;-63
2022/06/06 10:10:52;;;;;;;;;;;23.40;97.80;;;;;;4865192;29;20557;-61
2022/06/06 10:13:20;;;;;;;;;;;23.40;97.80;;;;;;4874683;29;19932;-64
2022/06/06 10:16:07;;;;;;;;;;;23.40;97.70;;;;;;4855766;29;19939;-63
2022/06/06 10:18:49;;;;;;;;;;;23.40;97.90;;;;;;4857330;29;19954;-63
2022/06/06 10:21:36;;;;;;;;;;;23.40;97.60;;;;;;4865531;29;19932;-63
2022/06/06 10:24:12;;;;;;;;;;;23.40;97.50;;;;;;4856742;29;20013;-63
2022/06/06 10:26:45;;;;;;;;;;;23.50;97.40;;;;;;4866818;29;19935;-60
2022/06/06 10:29:16;;;;;;;;;;;23.40;97.40;;;;;;4857420;29;19935;-62
2022/06/06 10:32:02;;;;;;;;;;;23.50;97.40;;;;;;4869020;29;19928;-63
2022/06/06 10:34:48;;;;;;;;;;;23.40;97.40;;;;;;4860867;29;19940;-62
2022/06/06 10:37:21;;;;;;;;;;;23.50;97.40;;;;;;4885072;29;19931;-61
2022/06/06 10:40:07;;;;;;;;;;;23.50;97.50;;;;;;4862598;29;19928;-62
2022/06/06 10:42:43;;;;;;;;;;;23.50;97.40;;;;;;4857933;29;20365;-62
2022/06/06 10:45:16;;;;;;;;;;;23.50;97.40;;;;;;4863653;29;20274;-63
2022/06/06 10:48:02;;;;;;;;;;;23.40;97.30;;;;;;4856996;29;19928;-62
2022/06/06 10:50:38;;;;;;;;;;;23.50;97.40;;;;;;4885228;29;19931;-63
2022/06/06 10:53:08;;;;;;;;;;;23.50;97.30;;;;;;4856528;29;20563;-62
2022/06/06 10:55:48;;;;;;;;;;;23.50;97.40;;;;;;4869809;29;19959;-63
2022/06/06 10:58:34;;;;;;;;;;;23.50;97.30;;;;;;4874991;29;19943;-62
2022/06/06 11:01:20;;;;;;;;;;;23.50;97.40;;;;;;4858116;29;20427;-62
2022/06/06 11:03:50;;;;;;;;;;;23.50;97.40;;;;;;4856607;29;19939;-62
2022/06/06 11:06:22;;;;;;;;;;;23.50;97.30;;;;;;4870648;29;19939;-62
2022/06/06 11:09:08;;;;;;;;;;;23.50;97.30;;;;;;4843124;29;19979;-62
2022/06/06 11:11:55;;;;;;;;;;;23.50;97.30;;;;;;4860346;29;19932;-61
2022/06/06 11:14:27;;;;;;;;;;;23.50;97.30;;;;;;4846596;29;19935;-60
2022/06/06 11:17:13;;;;;;;;;;;23.50;97.40;;;;;;4878437;29;19939;-62
2022/06/06 11:20:03;;;;;;;;;;;23.50;97.40;;;;;;4864223;29;20392;-61
2022/06/06 11:22:31;;;;;;;;;;;23.50;97.40;;;;;;4839874;29;19950;-62
2022/06/06 11:24:58;;;;;;;;;;;23.50;97.40;;;;;;4883747;29;19927;-60
2022/06/06 11:27:25;;;;;;;;;;;23.50;97.40;;;;;;4874631;29;20329;-63
2022/06/06 11:29:59;;;;;;;;;;;23.50;97.40;;;;;;4870504;29;20396;-62
2022/06/06 11:32:33;;;;;;;;;;;23.50;97.40;;;;;;4877775;29;19931;-63
2022/06/06 11:35:08;;;;;;;;;;;23.50;97.40;;;;;;4861515;29;19935;-61
2022/06/06 11:37:54;;;;;;;;;;;23.50;97.40;;;;;;4858022;29;19947;-63
2022/06/06 11:40:21;;;;;;;;;;;23.50;97.40;;;;;;4863612;29;19947;-62
2022/06/06 11:43:09;;;;;;;;;;;23.50;97.50;;;;;;4855921;29;20321;-62
2022/06/06 11:45:44;;;;;;;;;;;23.50;97.50;;;;;;4858110;29;19932;-62
2022/06/06 11:48:29;;;;;;;;;;;23.50;97.50;;;;;;4856736;29;20348;-63
2022/06/06 11:51:26;;;;;;;;;;;23.50;97.50;;;;;;4867507;29;20536;-62
2022/06/06 11:54:12;;;;;;;;;;;23.50;97.40;;;;;;4866809;29;20406;-66
2022/06/06 11:56:39;;;;;;;;;;;23.50;97.50;;;;;;4856899;29;19935;-65
2022/06/06 11:59:33;;;;;;;;;;;23.50;97.40;;;;;;4835012;29;19942;-62
2022/06/06 12:02:18;;;;;;;;;;;23.50;97.40;;;;;;4836692;29;19936;-62
2022/06/06 12:05:04;;;;;;;;;;;23.50;97.40;;;;;;4875423;29;19940;-63
2022/06/06 12:07:52;;;;;;;;;;;23.50;97.40;;;;;;4862755;29;19939;-62
2022/06/06 12:10:26;;;;;;;;;;;23.50;97.40;;;;;;4856935;29;19928;-61
2022/06/06 12:13:12;;;;;;;;;;;23.50;97.40;;;;;;4871949;29;19928;-64
2022/06/06 12:15:49;;;;;;;;;;;23.50;97.40;;;;;;4880508;29;19931;-62
2022/06/06 12:18:25;;;;;;;;;;;23.50;97.30;;;;;;4869033;29;20015;-61
2022/06/06 12:21:04;;;;;;;;;;;23.50;97.40;;;;;;4877072;29;19932;-63
2022/06/06 12:23:59;;;;;;;;;;;23.50;97.30;;;;;;4864350;29;20378;-62
2022/06/06 12:26:27;;;;;;;;;;;23.50;97.30;;;;;;4874750;29;19932;-60
2022/06/06 12:29:01;;;;;;;;;;;23.50;97.30;;;;;;4862084;29;19963;-60
2022/06/06 12:31:28;;;;;;;;;;;23.60;97.30;;;;;;4874230;29;19932;-62
2022/06/06 12:34:02;;;;;;;;;;;23.60;97.20;;;;;;4876945;29;20448;-62
2022/06/06 12:36:29;;;;;;;;;;;23.50;97.30;;;;;;4859374;29;20455;-64
2022/06/06 12:39:18;;;;;;;;;;;23.50;97.20;;;;;;4868578;29;19943;-63
2022/06/06 12:42:05;;;;;;;;;;;23.60;97.20;;;;;;4878902;29;19936;-61
2022/06/06 12:44:45;;;;;;;;;;;23.60;97.20;;;;;;4861313;29;19932;-63
2022/06/06 12:47:36;;;;;;;;;;;23.60;97.10;;;;;;4858919;29;19935;-63
2022/06/06 12:50:20;;;;;;;;;;;23.60;97.10;;;;;;4867579;29;19935;-62
2022/06/06 12:52:55;;;;;;;;;;;23.60;97.00;;;;;;4874895;29;20439;-62
2022/06/06 12:55:54;;;;;;;;;;;23.60;97.00;;;;;;4852758;29;19948;-59
2022/06/06 12:58:28;;;;;;;;;;;23.60;96.90;;;;;;4859114;29;19932;-57
2022/06/06 13:03:58;;;;;;;;;;;23.60;96.80;;;;;;4871638;29;19940;-60
2022/06/06 13:06:52;;;;;;;;;;;23.60;96.80;;;;;;4873082;29;20318;-64
2022/06/06 13:09:37;;;;;;;;;;;23.60;96.80;;;;;;4842289;29;20492;-60
2022/06/06 13:12:30;;;;;;;;;;;23.60;96.80;;;;;;4860545;29;19935;-62
2022/06/06 13:14:57;;;;;;;;;;;23.60;96.80;;;;;;4860356;29;19949;-60
2022/06/06 13:17:29;;;;;;;;;;;23.60;96.80;;;;;;4873433;29;19947;-61
2022/06/06 13:19:56;;;;;;;;;;;23.60;96.70;;;;;;4867990;29;20011;-63
2022/06/06 13:22:29;;;;;;;;;;;23.60;96.60;;;;;;4879471;29;19932;-64
2022/06/06 13:25:21;;;;;;;;;;;23.70;96.50;;;;;;4863112;29;19931;-60
2022/06/06 13:27:51;;;;;;;;;;;23.70;96.40;;;;;;4884367;29;20424;-64
2022/06/06 13:30:21;;;;;;;;;;;23.80;96.30;;;;;;4870181;29;20344;-62
2022/06/06 13:33:14;;;;;;;;;;;23.90;96.20;;;;;;4868229;29;19937;-64
2022/06/06 13:35:57;;;;;;;;;;;23.90;96.10;;;;;;4865526;29;20392;-62
2022/06/06 13:38:34;;;;;;;;;;;23.80;96.10;;;;;;4858320;29;19928;-61
2022/06/06 13:41:24;;;;;;;;;;;23.90;96.10;;;;;;4864866;29;20364;-63
2022/06/06 13:43:56;;;;;;;;;;;23.90;96.00;;;;;;4857521;29;20258;-62
2022/06/06 13:46:29;;;;;;;;;;;23.90;96.00;;;;;;4871597;29;19932;-59
2022/06/06 13:48:59;;;;;;;;;;;24.00;95.90;;;;;;4893648;29;20327;-63
2022/06/06 13:51:37;;;;;;;;;;;24.00;95.70;;;;;;4858401;29;19932;-63
2022/06/06 13:54:05;;;;;;;;;;;24.00;95.50;;;;;;4866147;29;20344;-62
2022/06/06 13:56:41;;;;;;;;;;;24.20;95.40;;;;;;4858128;29;20039;-61
2022/06/06 13:59:25;;;;;;;;;;;24.20;95.30;;;;;;4864918;29;19936;-63
2022/06/06 14:01:52;;;;;;;;;;;24.20;95.20;;;;;;4871957;29;20397;-62
2022/06/06 14:04:19;;;;;;;;;;;24.30;95.10;;;;;;4857468;29;19935;-60
2022/06/06 14:06:58;;;;;;;;;;;24.30;95.00;;;;;;4882917;29;19950;-61
2022/06/06 14:09:42;;;;;;;;;;;24.30;94.80;;;;;;4858531;29;19939;-61
2022/06/06 14:12:19;;;;;;;;;;;24.30;94.60;;;;;;4871756;29;19935;-63
2022/06/06 14:14:49;;;;;;;;;;;24.30;94.50;;;;;;4866963;29;19932;-59
2022/06/06 14:17:24;;;;;;;;;;;24.40;94.50;;;;;;4841249;29;19939;-62
2022/06/06 14:19:51;;;;;;;;;;;24.40;94.60;;;;;;4862794;29;19938;-63
2022/06/06 14:22:30;;;;;;;;;;;24.30;94.50;;;;;;4873218;29;19928;-63
2022/06/06 14:25:01;;;;;;;;;;;24.30;94.60;;;;;;4865156;29;20382;-61
2022/06/06 14:27:29;;;;;;;;;;;24.30;94.60;;;;;;4856163;29;19953;-65
2022/06/06 14:29:58;;;;;;;;;;;24.40;94.50;;;;;;4863740;29;19939;-63
2022/06/06 14:32:25;;;;;;;;;;;24.50;94.70;;;;;;4864260;29;19932;-59
2022/06/06 14:34:54;;;;;;;;;;;24.40;94.40;;;;;;4857658;29;19932;-58
2022/06/06 14:37:24;;;;;;;;;;;24.50;94.50;;;;;;4869841;29;19928;-61
2022/06/06 14:39:56;;;;;;;;;;;24.50;94.40;;;;;;4860836;29;19936;-60
2022/06/06 14:42:29;;;;;;;;;;;24.50;94.50;;;;;;4865914;29;19932;-62
2022/06/06 14:44:59;;;;;;;;;;;24.50;94.40;;;;;;4864014;29;19938;-63
2022/06/06 14:47:27;;;;;;;;;;;24.40;94.40;;;;;;4861268;29;19932;-60
2022/06/06 14:52:53;;;;;;;;;;;24.30;94.50;;;;;;4858046;29;19943;-61
2022/06/06 14:55:22;;;;;;;;;;;24.40;94.40;;;;;;4862138;29;19939;-60
2022/06/06 14:57:49;;;;;;;;;;;24.50;94.30;;;;;;4863126;29;19928;-60
2022/06/06 15:00:43;;;;;;;;;;;24.60;94.20;;;;;;4868820;29;19931;-65
2022/06/06 15:03:10;;;;;;;;;;;24.70;94.10;;;;;;4842891;29;20027;-62
2022/06/06 15:05:38;;;;;;;;;;;24.80;94.00;;;;;;4867861;29;19935;-64
2022/06/06 15:08:23;;;;;;;;;;;24.80;93.90;;;;;;4855547;29;19932;-61
2022/06/06 15:11:04;;;;;;;;;;;24.90;93.90;;;;;;4864645;29;19932;-62
2022/06/06 15:13:31;;;;;;;;;;;24.80;93.90;;;;;;4858027;29;20677;-63
2022/06/06 15:16:03;;;;;;;;;;;24.70;93.80;;;;;;4874502;29;19939;-63
2022/06/06 15:18:32;;;;;;;;;;;24.60;93.90;;;;;;4858932;29;19928;-60
2022/06/06 15:21:00;;;;;;;;;;;24.60;94.10;;;;;;4861793;29;20391;-61
2022/06/06 15:23:28;;;;;;;;;;;24.60;94.10;;;;;;4856655;29;19932;-65
2022/06/06 15:25:55;;;;;;;;;;;24.70;94.00;;;;;;4857430;29;19932;-62
2022/06/06 15:29:01;;;;;;;;;;;24.80;93.80;;;;;;4871536;29;19928;-62
2022/06/06 15:31:39;;;;;;;;;;;24.90;93.70;;;;;;4886349;29;19939;-63